Time;durP1;ratioP1;P1;durP2;ratioP2;P2;SDS_P1;SDS_P2;PMS_P1;PMS_P2;Temp;Humidity;BMP_temperature;BMP_pressure;BME280_temperature;BME280_humidity;BME280_pressure;Samples;Min_cycle;Max_cycle;Signal;HPM_P1;HPM_P2
2023/12/25 00:01:04;;;;;;;8.02;1.80;;;;;;;;;;5003088;28;94531;-80
2023/12/25 00:03:30;;;;;;;8.63;2.05;;;;;;;;;;5014926;28;91662;-80
2023/12/25 00:06:10;;;;;;;8.60;2.05;;;;;;;;;;5004333;28;92137;-80
2023/12/25 00:08:36;;;;;;;7.70;1.67;;;;;;;;;;5006482;28;92861;-79
2023/12/25 00:11:03;;;;;;;7.00;1.70;;;;;;;;;;4992235;28;94526;-79
2023/12/25 00:13:30;;;;;;;6.55;1.60;;;;;;;;;;4963802;28;96486;-80
2023/12/25 00:15:56;;;;;;;9.30;1.90;;;;;;;;;;5003092;28;92853;-81
2023/12/25 00:18:23;;;;;;;6.53;1.65;;;;;;;;;;5001107;28;92065;-81
2023/12/25 00:20:50;;;;;;;8.30;1.75;;;;;;;;;;5007118;28;95287;-79
2023/12/25 00:23:17;;;;;;;7.55;1.60;;;;;;;;;;5013917;28;95459;-81
2023/12/25 00:25:43;;;;;;;13.98;2.10;;;;;;;;;;5002608;28;92780;-81
2023/12/25 00:28:10;;;;;;;8.10;1.63;;;;;;;;;;5003501;28;92013;-81
2023/12/25 00:30:36;;;;;;;7.22;1.88;;;;;;;;;;5006649;28;92395;-81
2023/12/25 00:33:03;;;;;;;8.05;1.80;;;;;;;;;;5018704;28;92338;-81
2023/12/25 00:35:30;;;;;;;5.85;1.40;;;;;;;;;;5020670;28;94797;-80
2023/12/25 00:37:56;;;;;;;5.68;1.70;;;;;;;;;;5006749;28;92179;-80
2023/12/25 00:40:23;;;;;;;7.45;1.60;;;;;;;;;;5005111;28;92631;-81
2023/12/25 00:42:50;;;;;;;7.07;1.55;;;;;;;;;;5014462;28;92977;-81
2023/12/25 00:45:16;;;;;;;9.57;1.83;;;;;;;;;;5011794;28;93062;-80
2023/12/25 00:47:44;;;;;;;;;;;;;;;;;;5025545;28;92777;-81
2023/12/25 00:50:11;;;;;;;10.63;1.80;;;;;;;;;;5027310;27;92223;-81
2023/12/25 00:52:38;;;;;;;5.40;1.35;;;;;;;;;;5042301;28;94384;-82
2023/12/25 00:55:05;;;;;;;4.78;1.27;;;;;;;;;;5024177;28;94393;-81
2023/12/25 00:57:32;;;;;;;6.55;1.70;;;;;;;;;;5040743;27;92290;-80
2023/12/25 00:59:59;;;;;;;7.15;1.40;;;;;;;;;;5023006;28;94454;-79
2023/12/25 01:02:26;;;;;;;8.60;1.80;;;;;;;;;;5023609;27;95473;-79
2023/12/25 01:04:53;;;;;;;6.45;1.55;;;;;;;;;;5023093;28;92507;-79
2023/12/25 01:07:20;;;;;;;6.28;1.48;;;;;;;;;;5026482;28;95031;-81
2023/12/25 01:09:47;;;;;;;7.72;1.40;;;;;;;;;;5024685;28;92158;-81
2023/12/25 01:12:14;;;;;;;6.45;1.30;;;;;;;;;;5023233;28;95192;-80
2023/12/25 01:14:43;;;;;;;6.30;1.42;;;;;;;;;;5025639;28;92490;-81
2023/12/25 01:17:10;;;;;;;7.75;1.45;;;;;;;;;;5025192;28;91798;-81
2023/12/25 01:19:37;;;;;;;5.88;1.38;;;;;;;;;;5024192;28;94214;-79
2023/12/25 01:22:04;;;;;;;6.05;1.50;;;;;;;;;;5024411;28;94693;-81
2023/12/25 01:24:30;;;;;;;6.88;1.50;;;;;;;;;;5022482;28;94508;-81
2023/12/25 01:26:57;;;;;;;5.90;1.38;;;;;;;;;;5026597;28;97450;-80
2023/12/25 01:29:23;;;;;;;5.22;1.35;;;;;;;;;;5024895;28;94130;-80
2023/12/25 01:31:50;;;;;;;8.90;1.50;;;;;;;;;;5024413;28;94668;-80
2023/12/25 01:34:17;;;;;;;5.00;1.30;;;;;;;;;;5022897;28;92657;-80
2023/12/25 01:36:43;;;;;;;6.88;1.40;;;;;;;;;;5025846;27;92761;-81
2023/12/25 01:39:12;;;;;;;7.03;1.30;;;;;;;;;;5013789;28;95067;-81
2023/12/25 01:41:38;;;;;;;13.52;1.70;;;;;;;;;;5026156;27;91994;-82
2023/12/25 01:44:05;;;;;;;6.20;1.77;;;;;;;;;;5039560;27;92432;-81
2023/12/25 01:46:43;;;;;;;6.40;1.48;;;;;;;;;;5040884;27;94849;-80
2023/12/25 01:49:09;;;;;;;8.43;1.58;;;;;;;;;;5026331;27;95178;-80
2023/12/25 01:51:36;;;;;;;5.90;1.38;;;;;;;;;;5040540;27;95072;-80
2023/12/25 01:54:04;;;;;;;8.73;1.50;;;;;;;;;;5023826;27;92834;-79
2023/12/25 01:56:31;;;;;;;5.97;1.40;;;;;;;;;;5023367;28;93764;-80
2023/12/25 01:58:58;;;;;;;8.00;1.73;;;;;;;;;;5023085;28;98899;-80
2023/12/25 02:01:25;;;;;;;6.53;1.20;;;;;;;;;;5006353;28;95371;-80
2023/12/25 02:03:52;;;;;;;4.13;1.20;;;;;;;;;;5006710;28;92664;-81
2023/12/25 02:06:19;;;;;;;3.88;1.10;;;;;;;;;;5003020;28;94948;-81
2023/12/25 02:08:45;;;;;;;4.20;1.42;;;;;;;;;;5010809;28;92895;-81
2023/12/25 02:11:12;;;;;;;2.97;0.95;;;;;;;;;;5007089;28;92576;-80
2023/12/25 02:13:38;;;;;;;6.78;1.30;;;;;;;;;;4984241;28;97891;-80
2023/12/25 02:16:06;;;;;;;7.22;1.52;;;;;;;;;;5012186;28;92422;-81
2023/12/25 02:18:34;;;;;;;6.05;1.40;;;;;;;;;;5022820;28;92326;-80
2023/12/25 02:21:00;;;;;;;;;;;;;;;;;;5022646;28;95308;-81
2023/12/25 02:23:28;;;;;;;7.45;1.42;;;;;;;;;;5025288;28;103906;-79
2023/12/25 02:25:56;;;;;;;4.35;1.17;;;;;;;;;;5024231;28;93240;-80
2023/12/25 02:28:22;;;;;;;4.78;1.23;;;;;;;;;;5021507;28;95690;-80
2023/12/25 02:30:49;;;;;;;4.35;1.20;;;;;;;;;;5023926;28;91805;-80
2023/12/25 02:33:16;;;;;;;7.10;1.40;;;;;;;;;;5009776;28;94823;-79
2023/12/25 02:35:43;;;;;;;5.65;1.58;;;;;;;;;;5021955;28;92261;-81
2023/12/25 02:38:09;;;;;;;7.30;1.70;;;;;;;;;;5022160;27;94403;-80
2023/12/25 02:40:39;;;;;;;5.10;1.20;;;;;;;;;;5024271;27;92711;-81
2023/12/25 02:43:07;;;;;;;7.63;1.30;;;;;;;;;;5023655;28;92324;-81
2023/12/25 02:45:33;;;;;;;4.85;1.15;;;;;;;;;;5006558;28;94222;-80
2023/12/25 02:48:00;;;;;;;8.43;1.65;;;;;;;;;;5023460;28;92138;-81
2023/12/25 02:50:27;;;;;;;7.88;1.30;;;;;;;;;;5021482;27;92502;-81
2023/12/25 02:52:54;;;;;;;8.45;1.55;;;;;;;;;;5024521;27;92740;-81
2023/12/25 02:55:20;;;;;;;5.40;1.35;;;;;;;;;;5013592;28;91997;-81
2023/12/25 02:57:47;;;;;;;7.20;1.50;;;;;;;;;;5004382;28;92562;-81
2023/12/25 03:00:14;;;;;;;6.72;1.35;;;;;;;;;;5002924;28;93602;-81
2023/12/25 03:02:41;;;;;;;6.78;1.40;;;;;;;;;;5010779;27;94415;-81
2023/12/25 03:05:08;;;;;;;5.75;1.30;;;;;;;;;;5021117;28;94948;-82
2023/12/25 03:07:35;;;;;;;7.88;1.73;;;;;;;;;;5021625;28;95043;-81
2023/12/25 03:10:01;;;;;;;5.57;1.30;;;;;;;;;;5021764;28;92339;-80
2023/12/25 03:12:28;;;;;;;9.57;1.50;;;;;;;;;;5000486;28;92383;-80
2023/12/25 03:14:55;;;;;;;7.20;1.60;;;;;;;;;;5021152;28;93611;-79
2023/12/25 03:17:22;;;;;;;4.63;1.15;;;;;;;;;;5024797;28;92602;-79
2023/12/25 03:19:48;;;;;;;8.68;1.35;;;;;;;;;;5022374;28;92016;-80
2023/12/25 03:22:15;;;;;;;7.45;1.50;;;;;;;;;;5003958;28;92303;-80
2023/12/25 03:24:42;;;;;;;5.53;1.40;;;;;;;;;;5021187;28;92451;-79
2023/12/25 03:27:08;;;;;;;5.25;1.50;;;;;;;;;;5018323;28;96123;-79
2023/12/25 03:29:35;;;;;;;6.10;1.42;;;;;;;;;;5022075;27;92267;-80
2023/12/25 03:32:02;;;;;;;7.97;1.50;;;;;;;;;;5021126;28;95238;-80
2023/12/25 03:34:28;;;;;;;6.07;1.40;;;;;;;;;;5020505;27;92816;-80
2023/12/25 03:36:56;;;;;;;8.15;1.60;;;;;;;;;;5026134;27;92588;-80
2023/12/25 03:39:22;;;;;;;8.15;1.60;;;;;;;;;;5004770;28;95263;-80
2023/12/25 03:41:49;;;;;;;7.43;1.42;;;;;;;;;;5022368;28;94317;-80
2023/12/25 03:44:15;;;;;;;7.15;1.50;;;;;;;;;;5003816;28;94801;-80
2023/12/25 03:46:42;;;;;;;8.52;1.40;;;;;;;;;;5020966;28;95296;-81
2023/12/25 03:49:08;;;;;;;8.10;1.40;;;;;;;;;;5020600;28;92384;-80
2023/12/25 03:51:35;;;;;;;5.68;1.40;;;;;;;;;;5021359;28;94729;-81
2023/12/25 03:54:02;;;;;;;6.38;1.40;;;;;;;;;;5020357;28;95073;-80
2023/12/25 03:56:29;;;;;;;7.53;1.70;;;;;;;;;;5002370;28;93327;-81
2023/12/25 03:58:56;;;;;;;9.15;1.70;;;;;;;;;;5028350;28;95055;-81
2023/12/25 04:01:23;;;;;;;8.07;1.55;;;;;;;;;;5021515;28;92065;-81
2023/12/25 04:03:49;;;;;;;9.52;1.70;;;;;;;;;;5004863;28;92299;-81
2023/12/25 04:06:26;;;;;;;11.40;2.10;;;;;;;;;;4999250;28;94863;-81
2023/12/25 04:08:52;;;;;;;9.68;1.85;;;;;;;;;;5001722;28;91592;-83
2023/12/25 04:11:22;;;;;;;9.43;1.52;;;;;;;;;;5003394;28;93714;-81
2023/12/25 04:13:55;;;;;;;8.18;1.70;;;;;;;;;;5001146;28;94737;-83
2023/12/25 04:16:23;;;;;;;6.10;1.30;;;;;;;;;;5003235;28;94633;-82
2023/12/25 04:18:52;;;;;;;7.32;1.80;;;;;;;;;;5039099;28;97092;-82
2023/12/25 04:21:22;;;;;;;6.45;1.60;;;;;;;;;;5025741;28;92941;-82
2023/12/25 04:23:49;;;;;;;7.47;1.48;;;;;;;;;;5023405;27;92283;-81
2023/12/25 04:26:16;;;;;;;5.82;1.40;;;;;;;;;;5020998;27;93556;-82
2023/12/25 04:28:44;;;;;;;9.70;1.75;;;;;;;;;;5022488;28;92344;-81
2023/12/25 04:31:10;;;;;;;6.22;1.50;;;;;;;;;;5012632;28;94997;-81
2023/12/25 04:33:37;;;;;;;10.93;1.60;;;;;;;;;;5003121;28;91908;-81
2023/12/25 04:36:05;;;;;;;6.35;1.30;;;;;;;;;;4984343;28;92164;-81
2023/12/25 04:38:32;;;;;;;19.13;2.13;;;;;;;;;;4997102;28;95311;-78
2023/12/25 04:40:59;;;;;;;9.88;1.70;;;;;;;;;;5003984;28;97473;-81
2023/12/25 04:43:25;;;;;;;6.38;1.50;;;;;;;;;;5024423;28;92211;-81
2023/12/25 04:45:52;;;;;;;6.70;1.55;;;;;;;;;;5020733;28;95401;-81
2023/12/25 04:48:19;;;;;;;8.95;1.40;;;;;;;;;;5022340;28;92267;-79
2023/12/25 04:50:46;;;;;;;8.65;1.65;;;;;;;;;;5014886;28;92597;-79
2023/12/25 04:53:14;;;;;;;8.00;1.70;;;;;;;;;;4996687;28;95319;-78
2023/12/25 04:55:41;;;;;;;8.85;1.45;;;;;;;;;;4994637;28;92455;-79
2023/12/25 04:58:07;;;;;;;5.55;1.23;;;;;;;;;;4999979;28;91905;-79
2023/12/25 05:00:34;;;;;;;8.45;1.25;;;;;;;;;;5016489;28;94830;-79
2023/12/25 05:03:02;;;;;;;8.90;1.58;;;;;;;;;;5000672;28;92086;-79
2023/12/25 05:05:28;;;;;;;7.90;1.25;;;;;;;;;;5002196;28;94741;-80
2023/12/25 05:07:56;;;;;;;10.40;1.48;;;;;;;;;;5017035;28;92207;-79
2023/12/25 05:10:23;;;;;;;8.55;1.50;;;;;;;;;;5001776;28;94709;-80
2023/12/25 05:12:49;;;;;;;8.25;1.40;;;;;;;;;;5012073;28;93938;-81
2023/12/25 05:15:16;;;;;;;8.30;1.30;;;;;;;;;;5003761;28;92076;-79
2023/12/25 05:17:42;;;;;;;8.43;1.58;;;;;;;;;;4985279;28;94331;-78
2023/12/25 05:20:09;;;;;;;6.40;1.40;;;;;;;;;;5003671;28;94569;-80
2023/12/25 05:22:36;;;;;;;7.80;1.50;;;;;;;;;;5004702;28;91354;-79
2023/12/25 05:25:03;;;;;;;10.60;1.50;;;;;;;;;;5005775;28;92271;-80
2023/12/25 05:27:30;;;;;;;8.35;1.80;;;;;;;;;;5008059;28;92816;-79
2023/12/25 05:29:56;;;;;;;8.52;1.48;;;;;;;;;;5002939;28;94814;-79
2023/12/25 05:32:23;;;;;;;7.65;1.70;;;;;;;;;;5003221;28;93560;-79
2023/12/25 05:34:50;;;;;;;10.50;1.60;;;;;;;;;;5006789;28;92395;-79
2023/12/25 05:37:16;;;;;;;9.25;1.65;;;;;;;;;;4996311;28;92771;-78
2023/12/25 05:39:43;;;;;;;7.15;1.42;;;;;;;;;;5027130;28;92623;-79
2023/12/25 05:42:09;;;;;;;5.68;1.20;;;;;;;;;;5024506;27;92256;-79
2023/12/25 05:44:36;;;;;;;7.32;1.40;;;;;;;;;;5025617;27;92761;-78
2023/12/25 05:47:02;;;;;;;5.20;1.23;;;;;;;;;;5029025;28;94816;-80
2023/12/25 05:49:29;;;;;;;6.93;1.65;;;;;;;;;;5026819;28;92447;-80
2023/12/25 05:51:56;;;;;;;6.53;1.05;;;;;;;;;;5026459;28;92005;-79
2023/12/25 05:54:23;;;;;;;7.55;1.20;;;;;;;;;;5020958;27;94681;-80
2023/12/25 05:56:50;;;;;;;6.22;1.50;;;;;;;;;;5025714;27;94339;-79
2023/12/25 05:59:16;;;;;;;7.32;1.40;;;;;;;;;;5023660;28;92256;-79
2023/12/25 06:01:45;;;;;;;9.05;1.65;;;;;;;;;;5023766;28;92380;-79
2023/12/25 06:04:12;;;;;;;6.10;1.25;;;;;;;;;;5021571;27;94721;-78
2023/12/25 06:06:38;;;;;;;5.63;1.30;;;;;;;;;;5005069;28;93066;-80
2023/12/25 06:09:05;;;;;;;5.25;1.30;;;;;;;;;;4992694;28;92254;-81
2023/12/25 06:11:31;;;;;;;5.03;1.13;;;;;;;;;;5004951;28;94543;-80
2023/12/25 06:13:58;;;;;;;7.68;1.70;;;;;;;;;;5005232;28;92318;-80
2023/12/25 06:16:25;;;;;;;8.68;1.55;;;;;;;;;;5003313;28;93155;-80
2023/12/25 06:18:52;;;;;;;6.40;1.40;;;;;;;;;;5001952;28;96137;-80
2023/12/25 06:21:19;;;;;;;6.03;1.30;;;;;;;;;;5003589;28;92130;-81
2023/12/25 06:23:45;;;;;;;6.20;1.48;;;;;;;;;;5004243;28;92537;-81
2023/12/25 06:26:12;;;;;;;6.40;1.42;;;;;;;;;;5021267;27;92654;-81
2023/12/25 06:28:39;;;;;;;6.03;1.20;;;;;;;;;;5008230;28;93161;-81
2023/12/25 06:31:06;;;;;;;5.20;1.10;;;;;;;;;;5018911;27;92922;-80
2023/12/25 06:33:33;;;;;;;5.68;1.50;;;;;;;;;;5017793;28;92434;-81
2023/12/25 06:36:00;;;;;;;7.13;1.30;;;;;;;;;;5010988;27;92176;-81
2023/12/25 06:38:27;;;;;;;7.13;1.50;;;;;;;;;;5004677;27;92702;-80
2023/12/25 06:40:53;;;;;;;6.05;1.40;;;;;;;;;;4994192;28;92007;-80
2023/12/25 06:43:20;;;;;;;6.80;1.17;;;;;;;;;;5004289;28;94669;-80
2023/12/25 06:45:46;;;;;;;4.75;1.15;;;;;;;;;;5005421;28;92761;-80
2023/12/25 06:48:13;;;;;;;5.97;1.10;;;;;;;;;;5003992;28;92199;-80
2023/12/25 06:50:40;;;;;;;6.18;1.27;;;;;;;;;;5003008;28;92686;-79
2023/12/25 06:53:07;;;;;;;5.32;1.10;;;;;;;;;;4987684;28;93201;-80
2023/12/25 06:55:34;;;;;;;10.45;1.20;;;;;;;;;;4984772;28;92756;-80
2023/12/25 06:58:01;;;;;;;5.90;1.00;;;;;;;;;;4994556;28;93162;-80
2023/12/25 07:00:28;;;;;;;6.38;1.30;;;;;;;;;;4987080;28;91519;-79
2023/12/25 07:02:56;;;;;;;5.72;1.02;;;;;;;;;;4994681;28;92418;-79
2023/12/25 07:05:23;;;;;;;4.80;1.00;;;;;;;;;;5011498;28;92894;-80
2023/12/25 07:07:50;;;;;;;6.97;1.40;;;;;;;;;;5017255;28;94792;-80
2023/12/25 07:10:16;;;;;;;5.60;1.15;;;;;;;;;;5007899;28;95693;-80
2023/12/25 07:12:43;;;;;;;3.70;1.10;;;;;;;;;;5018567;28;92809;-80
2023/12/25 07:15:09;;;;;;;4.10;0.80;;;;;;;;;;5017515;28;92111;-80
2023/12/25 07:17:37;;;;;;;6.43;1.20;;;;;;;;;;5010283;28;92788;-79
2023/12/25 07:20:04;;;;;;;4.53;1.10;;;;;;;;;;5004179;28;92134;-79
2023/12/25 07:22:31;;;;;;;3.47;1.05;;;;;;;;;;5004223;28;96922;-79
2023/12/25 07:25:04;;;;;;;4.70;0.90;;;;;;;;;;5004133;28;91936;-80
2023/12/25 07:27:31;;;;;;;;;;;;;;;;;;5016661;28;91965;-79
2023/12/25 07:29:58;;;;;;;5.13;0.80;;;;;;;;;;5023448;28;113766;-79
2023/12/25 07:32:24;;;;;;;8.30;1.10;;;;;;;;;;5013353;27;95032;-79
2023/12/25 07:34:52;;;;;;;3.95;1.00;;;;;;;;;;5010681;28;92131;-79
2023/12/25 07:37:18;;;;;;;6.82;1.25;;;;;;;;;;5017276;28;92848;-79
2023/12/25 07:39:45;;;;;;;4.85;0.93;;;;;;;;;;5017824;28;92194;-79
2023/12/25 07:42:11;;;;;;;3.05;0.98;;;;;;;;;;5021612;27;92302;-78
2023/12/25 07:44:41;;;;;;;4.57;0.88;;;;;;;;;;5022637;28;92863;-80
2023/12/25 07:47:08;;;;;;;5.30;0.90;;;;;;;;;;5007632;28;91982;-80
2023/12/25 07:49:34;;;;;;;4.45;1.05;;;;;;;;;;5003090;28;92860;-79
2023/12/25 07:52:01;;;;;;;8.82;1.20;;;;;;;;;;5003024;27;92718;-79
2023/12/25 07:54:28;;;;;;;11.70;1.50;;;;;;;;;;5021262;28;92749;-79
2023/12/25 07:56:55;;;;;;;8.18;1.20;;;;;;;;;;5017838;28;94424;-82
2023/12/25 07:59:21;;;;;;;11.13;1.13;;;;;;;;;;5013455;28;92336;-81
2023/12/25 08:01:48;;;;;;;7.38;1.15;;;;;;;;;;5036612;28;92452;-80
2023/12/25 08:04:14;;;;;;;5.75;1.02;;;;;;;;;;5042646;27;92863;-80
2023/12/25 08:06:41;;;;;;;3.72;1.00;;;;;;;;;;5022771;27;92091;-80
2023/12/25 08:09:09;;;;;;;4.63;1.02;;;;;;;;;;5002214;28;92479;-80
2023/12/25 08:11:36;;;;;;;3.90;0.95;;;;;;;;;;5000743;28;93994;-80
2023/12/25 08:14:03;;;;;;;3.03;0.70;;;;;;;;;;5001102;28;91444;-80
2023/12/25 08:16:29;;;;;;;5.78;0.85;;;;;;;;;;5001427;28;99126;-81
2023/12/25 08:18:56;;;;;;;5.15;0.80;;;;;;;;;;5004459;28;92930;-81
2023/12/25 08:21:23;;;;;;;5.40;0.93;;;;;;;;;;5000986;28;94836;-81
2023/12/25 08:23:51;;;;;;;4.30;0.98;;;;;;;;;;5002349;28;92100;-81
2023/12/25 08:26:18;;;;;;;5.35;0.90;;;;;;;;;;5000743;28;92229;-80
2023/12/25 08:28:47;;;;;;;4.30;1.00;;;;;;;;;;5002197;28;92472;-81
2023/12/25 08:31:14;;;;;;;4.78;1.00;;;;;;;;;;5011890;28;93879;-81
2023/12/25 08:33:40;;;;;;;6.13;0.98;;;;;;;;;;5007844;28;92118;-81
2023/12/25 08:36:07;;;;;;;4.40;0.90;;;;;;;;;;5016476;28;92167;-80
2023/12/25 08:38:35;;;;;;;3.33;0.80;;;;;;;;;;5018306;28;91934;-81
2023/12/25 08:41:04;;;;;;;3.30;0.90;;;;;;;;;;5016481;28;92126;-81
2023/12/25 08:43:31;;;;;;;4.47;0.85;;;;;;;;;;5010143;28;93074;-83
2023/12/25 08:45:57;;;;;;;4.68;0.90;;;;;;;;;;5015620;28;94959;-81
2023/12/25 08:48:24;;;;;;;5.05;0.95;;;;;;;;;;5000536;28;94880;-81
2023/12/25 08:50:54;;;;;;;3.47;0.80;;;;;;;;;;4996738;28;95961;-80
2023/12/25 08:53:20;;;;;;;5.57;0.85;;;;;;;;;;4984628;28;92028;-81
2023/12/25 08:55:47;;;;;;;5.32;1.00;;;;;;;;;;4988420;28;92683;-81
2023/12/25 08:58:14;;;;;;;4.18;0.80;;;;;;;;;;5004070;28;94663;-80
2023/12/25 09:00:41;;;;;;;9.25;1.05;;;;;;;;;;5011203;28;92028;-81
2023/12/25 09:03:08;;;;;;;3.15;0.90;;;;;;;;;;5019025;28;91831;-82
2023/12/25 09:05:35;;;;;;;2.47;0.82;;;;;;;;;;5001450;28;92520;-81
2023/12/25 09:08:02;;;;;;;4.00;0.90;;;;;;;;;;5002936;28;92970;-81
2023/12/25 09:10:28;;;;;;;2.78;0.85;;;;;;;;;;4999612;28;95441;-81
2023/12/25 09:12:55;;;;;;;3.40;0.80;;;;;;;;;;5002734;28;92495;-81
2023/12/25 09:15:23;;;;;;;3.35;0.85;;;;;;;;;;5003557;28;92577;-81
2023/12/25 09:17:50;;;;;;;2.88;0.80;;;;;;;;;;5003718;28;92790;-81
2023/12/25 09:20:17;;;;;;;4.53;1.05;;;;;;;;;;5001203;28;92471;-80
2023/12/25 09:22:44;;;;;;;1.77;0.80;;;;;;;;;;5009379;28;93324;-81
2023/12/25 09:25:11;;;;;;;3.45;0.80;;;;;;;;;;5015546;28;94302;-81
2023/12/25 09:27:38;;;;;;;2.72;0.80;;;;;;;;;;5004693;28;91754;-81
2023/12/25 09:30:04;;;;;;;4.78;0.80;;;;;;;;;;4984530;28;95565;-79
2023/12/25 09:32:32;;;;;;;3.00;0.75;;;;;;;;;;5003952;28;92338;-81
2023/12/25 09:34:59;;;;;;;3.15;0.70;;;;;;;;;;5000570;28;95326;-81
2023/12/25 09:37:26;;;;;;;3.47;0.90;;;;;;;;;;5003959;28;92807;-79
2023/12/25 09:39:53;;;;;;;1.83;0.80;;;;;;;;;;4990811;28;92458;-80
2023/12/25 09:42:20;;;;;;;2.28;0.82;;;;;;;;;;4983309;28;92556;-81
2023/12/25 09:44:48;;;;;;;2.05;0.70;;;;;;;;;;5000001;28;94884;-80
2023/12/25 09:47:16;;;;;;;3.00;0.90;;;;;;;;;;5010659;28;92624;-81
2023/12/25 09:49:45;;;;;;;2.67;0.73;;;;;;;;;;4994399;28;95300;-82
2023/12/25 09:52:12;;;;;;;3.40;0.80;;;;;;;;;;4989181;28;91492;-81
2023/12/25 09:54:40;;;;;;;2.88;0.80;;;;;;;;;;5001684;28;92727;-81
2023/12/25 09:57:06;;;;;;;2.30;0.70;;;;;;;;;;5003152;27;92819;-81
2023/12/25 09:59:34;;;;;;;2.20;0.80;;;;;;;;;;5001442;27;95034;-81
2023/12/25 10:02:02;;;;;;;1.77;0.77;;;;;;;;;;5002251;28;94783;-81
2023/12/25 10:04:30;;;;;;;2.95;0.80;;;;;;;;;;5001733;28;95426;-81
2023/12/25 10:06:57;;;;;;;;;;;;;;;;;;5036490;27;92174;-81
2023/12/25 10:09:24;;;;;;;3.03;0.85;;;;;;;;;;5043425;27;100686;-81
2023/12/25 10:11:50;;;;;;;2.28;0.80;;;;;;;;;;5042456;28;92282;-81
2023/12/25 10:14:17;;;;;;;2.75;0.90;;;;;;;;;;5039526;27;94187;-81
2023/12/25 10:16:43;;;;;;;3.00;0.88;;;;;;;;;;5041555;28;94409;-80
2023/12/25 10:19:11;;;;;;;2.00;0.70;;;;;;;;;;5041830;28;92292;-81
2023/12/25 10:21:43;;;;;;;2.88;1.00;;;;;;;;;;5026233;28;92338;-81
2023/12/25 10:24:10;;;;;;;3.53;0.82;;;;;;;;;;5017834;27;97974;-80
2023/12/25 10:26:36;;;;;;;;;;;;;;;;;;5006355;28;92517;-81
2023/12/25 10:29:08;;;;;;;2.17;0.70;;;;;;;;;;5018591;27;92195;-81
2023/12/25 10:31:39;;;;;;;3.20;0.90;;;;;;;;;;5014321;28;91974;-81
2023/12/25 10:34:05;;;;;;;0.93;0.70;;;;;;;;;;5034041;27;95725;-80
2023/12/25 10:36:32;;;;;;;4.70;1.00;;;;;;;;;;5022500;28;92448;-80
2023/12/25 10:39:00;;;;;;;2.72;0.82;;;;;;;;;;5014264;27;92211;-81
2023/12/25 10:41:28;;;;;;;2.30;0.80;;;;;;;;;;4993334;28;93106;-80
2023/12/25 10:43:56;;;;;;;1.42;0.70;;;;;;;;;;5000633;28;92714;-80
2023/12/25 10:46:23;;;;;;;3.78;0.80;;;;;;;;;;5001194;28;92207;-80
2023/12/25 10:48:51;;;;;;;1.73;0.80;;;;;;;;;;4999835;28;94608;-80
2023/12/25 10:51:30;;;;;;;3.83;0.90;;;;;;;;;;5019957;28;95189;-80
2023/12/25 10:53:59;;;;;;;1.33;0.70;;;;;;;;;;4983782;28;92353;-80
2023/12/25 10:56:27;;;;;;;3.67;0.90;;;;;;;;;;4999677;28;95280;-79
2023/12/25 10:58:53;;;;;;;;;;;;;;;;;;5001687;28;92651;-80
2023/12/25 11:01:24;;;;;;;3.28;0.90;;;;;;;;;;5005573;28;92176;-81
2023/12/25 11:03:52;;;;;;;4.25;1.00;;;;;;;;;;5001356;28;94396;-84
2023/12/25 11:06:20;;;;;;;3.15;0.90;;;;;;;;;;4997561;28;91686;-84
2023/12/25 11:08:47;;;;;;;3.10;1.10;;;;;;;;;;4993404;28;92456;-82
2023/12/25 11:11:14;;;;;;;4.28;0.93;;;;;;;;;;5001077;28;93010;-81
2023/12/25 11:13:44;;;;;;;3.65;0.93;;;;;;;;;;5003628;28;94643;-80
2023/12/25 11:16:13;;;;;;;5.05;0.90;;;;;;;;;;4999034;28;95158;-81
2023/12/25 11:18:41;;;;;;;8.90;1.33;;;;;;;;;;5001644;28;92087;-82
2023/12/25 11:21:08;;;;;;;4.72;1.05;;;;;;;;;;5000466;28;92726;-80
2023/12/25 11:23:40;;;;;;;7.75;1.20;;;;;;;;;;5001452;28;93777;-80
2023/12/25 11:26:09;;;;;;;6.05;1.10;;;;;;;;;;5002342;28;92533;-80
2023/12/25 11:28:37;;;;;;;9.10;1.02;;;;;;;;;;5020832;28;94568;-80
2023/12/25 11:31:04;;;;;;;2.30;0.77;;;;;;;;;;4995378;28;94518;-80
2023/12/25 11:33:45;;;;;;;4.75;1.00;;;;;;;;;;5000554;28;92436;-80
2023/12/25 11:36:12;;;;;;;5.32;1.00;;;;;;;;;;5032026;27;94859;-80
2023/12/25 11:38:43;;;;;;;4.43;0.90;;;;;;;;;;4998509;28;95487;-80
2023/12/25 11:41:14;;;;;;;3.25;0.80;;;;;;;;;;5002200;28;94828;-80
2023/12/25 11:43:40;;;;;;;5.35;0.85;;;;;;;;;;5001902;28;92827;-80
2023/12/25 11:46:11;;;;;;;2.17;0.70;;;;;;;;;;5016100;28;92418;-80
2023/12/25 11:48:38;;;;;;;4.28;1.00;;;;;;;;;;5021264;28;92338;-80
2023/12/25 11:51:18;;;;;;;3.03;1.00;;;;;;;;;;5011704;28;92763;-80
2023/12/25 11:53:45;;;;;;;3.58;0.82;;;;;;;;;;5001758;28;92374;-80
2023/12/25 11:56:12;;;;;;;2.78;0.90;;;;;;;;;;5020333;28;92495;-81
2023/12/25 11:58:39;;;;;;;4.88;0.90;;;;;;;;;;5000316;28;92534;-81
2023/12/25 12:01:06;;;;;;;1.80;0.90;;;;;;;;;;5008444;28;95399;-81
2023/12/25 12:03:32;;;;;;;3.40;0.80;;;;;;;;;;4987576;28;95439;-81
2023/12/25 12:05:59;;;;;;;2.58;0.90;;;;;;;;;;4978887;28;92642;-81
2023/12/25 12:08:27;;;;;;;3.60;0.90;;;;;;;;;;4980891;28;93058;-81
2023/12/25 12:10:54;;;;;;;2.58;0.80;;;;;;;;;;4978418;28;95518;-80
2023/12/25 12:13:20;;;;;;;1.88;0.75;;;;;;;;;;4979510;28;92147;-80
2023/12/25 12:15:47;;;;;;;2.22;0.70;;;;;;;;;;4980003;28;92446;-81
2023/12/25 12:18:14;;;;;;;3.53;0.82;;;;;;;;;;4982599;28;92839;-80
2023/12/25 12:20:41;;;;;;;2.40;0.82;;;;;;;;;;4981461;28;91510;-80
2023/12/25 12:23:13;;;;;;;1.88;0.80;;;;;;;;;;4980740;28;93672;-80
2023/12/25 12:25:40;;;;;;;3.05;0.90;;;;;;;;;;4980113;28;92142;-81
2023/12/25 12:28:07;;;;;;;4.68;1.02;;;;;;;;;;4991292;28;94689;-81
2023/12/25 12:30:34;;;;;;;;;;;;;;;;;;4999179;28;93360;-81
2023/12/25 12:33:00;;;;;;;2.88;0.70;;;;;;;;;;5002761;28;92038;-82
2023/12/25 12:35:27;;;;;;;3.65;0.98;;;;;;;;;;4999877;28;92316;-81
2023/12/25 12:37:54;;;;;;;2.55;0.70;;;;;;;;;;4999306;28;94941;-81
2023/12/25 12:40:23;;;;;;;2.17;0.80;;;;;;;;;;5002970;28;92447;-81
2023/12/25 12:42:50;;;;;;;2.55;0.80;;;;;;;;;;4999647;28;93644;-81
2023/12/25 12:45:17;;;;;;;2.15;0.80;;;;;;;;;;4999535;28;91841;-82
2023/12/25 12:47:45;;;;;;;1.63;0.88;;;;;;;;;;5000792;28;92167;-81
2023/12/25 12:50:13;;;;;;;3.00;0.80;;;;;;;;;;4999776;28;93835;-81
2023/12/25 12:52:39;;;;;;;2.45;0.85;;;;;;;;;;4999589;28;94572;-81
2023/12/25 12:55:06;;;;;;;3.13;1.00;;;;;;;;;;4995529;28;94828;-81
2023/12/25 12:57:33;;;;;;;2.35;1.00;;;;;;;;;;4980758;28;93122;-81
2023/12/25 13:00:00;;;;;;;2.13;0.85;;;;;;;;;;4999233;28;92102;-81
2023/12/25 13:02:28;;;;;;;2.50;0.90;;;;;;;;;;4985004;28;95474;-81
2023/12/25 13:04:54;;;;;;;2.28;0.80;;;;;;;;;;5007080;28;92019;-81
2023/12/25 13:07:21;;;;;;;3.33;0.90;;;;;;;;;;5007051;28;93624;-81
2023/12/25 13:09:48;;;;;;;6.18;1.20;;;;;;;;;;5003901;28;94558;-80
2023/12/25 13:12:15;;;;;;;3.30;1.00;;;;;;;;;;4998200;27;93568;-80
2023/12/25 13:14:42;;;;;;;;;;;;;;;;;;5013453;28;95092;-81
2023/12/25 13:17:08;;;;;;;6.13;1.15;;;;;;;;;;4999194;28;109029;-81
2023/12/25 13:19:35;;;;;;;2.63;0.90;;;;;;;;;;4997989;28;92536;-80
2023/12/25 13:22:03;;;;;;;2.97;0.90;;;;;;;;;;4998897;28;92456;-81
2023/12/25 13:24:29;;;;;;;4.85;1.30;;;;;;;;;;5017111;28;99704;-80
2023/12/25 13:26:56;;;;;;;5.57;1.20;;;;;;;;;;5005892;28;94594;-82
2023/12/25 13:29:23;;;;;;;3.63;1.00;;;;;;;;;;5008369;27;93393;-80
2023/12/25 13:31:49;;;;;;;5.70;1.33;;;;;;;;;;5014739;28;92207;-81
2023/12/25 13:34:16;;;;;;;3.72;1.08;;;;;;;;;;5002437;28;92363;-80
2023/12/25 13:36:42;;;;;;;5.40;1.30;;;;;;;;;;4983487;28;94494;-81
2023/12/25 13:39:09;;;;;;;5.93;1.10;;;;;;;;;;4998461;28;100862;-80
2023/12/25 13:41:36;;;;;;;4.35;1.10;;;;;;;;;;5001613;28;94608;-80
2023/12/25 13:44:04;;;;;;;4.22;1.10;;;;;;;;;;4998342;28;93391;-81
2023/12/25 13:46:32;;;;;;;3.25;1.00;;;;;;;;;;5022025;28;92202;-81
2023/12/25 13:48:59;;;;;;;4.00;1.00;;;;;;;;;;4984017;28;94912;-80
2023/12/25 13:51:26;;;;;;;5.10;1.33;;;;;;;;;;5002809;27;92551;-81
2023/12/25 13:53:53;;;;;;;4.25;1.27;;;;;;;;;;5000630;28;94915;-80
2023/12/25 13:56:24;;;;;;;3.45;1.00;;;;;;;;;;5005071;27;93048;-79
2023/12/25 13:58:50;;;;;;;4.05;1.00;;;;;;;;;;5015051;28;91819;-80
2023/12/25 14:01:17;;;;;;;2.40;0.98;;;;;;;;;;5008564;28;92174;-80
2023/12/25 14:03:44;;;;;;;2.85;0.80;;;;;;;;;;5002024;28;94529;-80
2023/12/25 14:06:13;;;;;;;3.65;1.10;;;;;;;;;;5018476;27;94867;-80
2023/12/25 14:08:40;;;;;;;3.90;1.10;;;;;;;;;;5000685;28;92716;-80
2023/12/25 14:11:06;;;;;;;3.45;0.93;;;;;;;;;;5010674;28;92213;-80
2023/12/25 14:13:33;;;;;;;4.53;1.00;;;;;;;;;;5009598;28;92811;-80
2023/12/25 14:15:59;;;;;;;2.88;0.90;;;;;;;;;;5002672;27;92755;-80
2023/12/25 14:18:26;;;;;;;4.43;1.20;;;;;;;;;;5000260;28;92287;-80
2023/12/25 14:20:53;;;;;;;4.85;1.00;;;;;;;;;;5007946;28;94813;-80
2023/12/25 14:23:20;;;;;;;2.40;1.00;;;;;;;;;;4989221;28;92296;-80
2023/12/25 14:25:48;;;;;;;2.17;0.80;;;;;;;;;;4997342;28;92500;-79
2023/12/25 14:28:15;;;;;;;2.72;0.88;;;;;;;;;;5019900;28;92772;-81
2023/12/25 14:30:41;;;;;;;4.65;1.10;;;;;;;;;;5000603;28;94723;-81
2023/12/25 14:33:08;;;;;;;2.55;0.90;;;;;;;;;;5010925;28;95764;-81
2023/12/25 14:35:35;;;;;;;3.78;0.90;;;;;;;;;;5008940;27;93069;-81
2023/12/25 14:38:01;;;;;;;3.38;0.90;;;;;;;;;;5002373;28;92210;-80
2023/12/25 14:40:28;;;;;;;2.60;0.80;;;;;;;;;;5004152;28;92780;-80
2023/12/25 14:42:55;;;;;;;2.58;0.90;;;;;;;;;;5005504;28;93205;-81
2023/12/25 14:45:21;;;;;;;3.58;1.00;;;;;;;;;;5022630;28;92023;-81